createdAt,value
2023-05-19T00:01:17.980Z,10.20
2023-05-19T00:03:57.749Z,10.20
2023-05-19T00:06:33.874Z,10.30
2023-05-19T00:09:06.003Z,10.30
2023-05-19T00:11:36.353Z,10.30
2023-05-19T00:14:05.526Z,10.20
2023-05-19T00:16:32.801Z,10.20
2023-05-19T00:19:01.337Z,10.10
2023-05-19T00:21:29.283Z,10.10
2023-05-19T00:23:56.262Z,10.10
2023-05-19T00:26:23.871Z,10.00
2023-05-19T00:28:56.333Z,9.90
2023-05-19T00:31:24.053Z,9.90
2023-05-19T00:33:52.059Z,9.90
2023-05-19T00:36:18.970Z,9.80
2023-05-19T00:38:48.473Z,9.80
2023-05-19T00:41:15.655Z,9.80
2023-05-19T00:43:42.966Z,9.70
2023-05-19T00:46:11.123Z,9.70
2023-05-19T00:48:38.132Z,9.70
2023-05-19T00:51:06.594Z,9.60
2023-05-19T00:53:34.656Z,9.60
2023-05-19T00:56:03.160Z,9.60
2023-05-19T00:58:32.659Z,9.50
2023-05-19T01:01:03.549Z,9.50
2023-05-19T01:03:33.146Z,9.50
2023-05-19T01:06:07.229Z,9.40
2023-05-19T01:08:36.439Z,9.30
2023-05-19T01:11:08.017Z,9.20
2023-05-19T01:13:36.399Z,9.30
2023-05-19T01:16:32.311Z,9.30
2023-05-19T01:19:01.693Z,9.20
2023-05-19T01:21:53.793Z,9.20
2023-05-19T01:24:58.255Z,9.30
2023-05-19T01:27:37.189Z,9.40
2023-05-19T01:30:33.548Z,9.40
2023-05-19T01:33:03.543Z,9.50
2023-05-19T01:35:31.254Z,9.50
2023-05-19T01:38:00.304Z,9.50
2023-05-19T01:40:28.524Z,9.50
2023-05-19T01:42:58.189Z,9.40
2023-05-19T01:45:27.963Z,9.40
2023-05-19T01:47:58.350Z,9.30
2023-05-19T01:50:26.044Z,9.30
2023-05-19T01:52:53.167Z,9.30
2023-05-19T01:55:21.274Z,9.20
2023-05-19T01:57:59.864Z,9.20
2023-05-19T02:00:46.393Z,9.20
2023-05-19T02:03:26.938Z,9.10
2023-05-19T02:06:08.438Z,9.10
2023-05-19T02:08:42.805Z,9.10
2023-05-19T02:11:42.047Z,9.00
2023-05-19T02:14:16.867Z,9.00
2023-05-19T02:16:47.618Z,8.90
2023-05-19T02:19:34.227Z,8.90
2023-05-19T02:22:02.467Z,8.80
2023-05-19T02:24:29.349Z,8.80
2023-05-19T02:26:56.382Z,8.80
2023-05-19T02:29:23.406Z,8.80
2023-05-19T02:31:51.031Z,8.70
2023-05-19T02:34:19.109Z,8.70
2023-05-19T02:36:46.034Z,8.70
2023-05-19T02:39:13.025Z,8.70
2023-05-19T02:41:39.926Z,8.80
2023-05-19T02:44:07.690Z,8.80
2023-05-19T02:46:34.872Z,8.80
2023-05-19T02:49:01.844Z,8.80
2023-05-19T02:51:28.890Z,8.80
2023-05-19T02:53:58.687Z,8.80
2023-05-19T02:56:26.427Z,8.80
2023-05-19T02:58:53.412Z,8.80
2023-05-19T03:01:22.558Z,8.80
2023-05-19T03:03:49.536Z,8.80
2023-05-19T03:06:18.076Z,8.80
2023-05-19T03:08:45.177Z,8.80
2023-05-19T03:11:12.300Z,8.80
2023-05-19T03:13:39.245Z,8.80
2023-05-19T03:16:08.275Z,8.70
2023-05-19T03:18:36.086Z,8.70
2023-05-19T03:21:03.052Z,8.70
2023-05-19T03:23:30.064Z,8.70
2023-05-19T03:25:57.189Z,8.60
2023-05-19T03:28:24.342Z,8.70
2023-05-19T03:30:51.246Z,8.70
2023-05-19T03:33:21.790Z,8.60
2023-05-19T03:35:48.773Z,8.60
2023-05-19T03:38:17.286Z,8.60
2023-05-19T03:40:51.319Z,8.60
2023-05-19T03:43:18.233Z,8.50
2023-05-19T03:45:53.619Z,8.40
2023-05-19T03:48:46.685Z,8.40
2023-05-19T03:51:16.529Z,8.40
2023-05-19T03:53:45.626Z,8.40
2023-05-19T03:56:13.898Z,8.30
2023-05-19T03:58:44.433Z,8.30
2023-05-19T04:01:11.759Z,8.30
2023-05-19T04:03:38.645Z,8.30
2023-05-19T04:06:05.942Z,8.30
2023-05-19T04:08:32.812Z,8.30
2023-05-19T04:10:59.872Z,8.30
2023-05-19T04:13:26.809Z,8.30
2023-05-19T04:15:53.822Z,8.30
2023-05-19T04:18:20.928Z,8.30
2023-05-19T04:20:47.890Z,8.30
2023-05-19T04:23:14.711Z,8.30
2023-05-19T04:25:42.199Z,8.30
2023-05-19T04:28:09.116Z,8.30
2023-05-19T04:30:38.632Z,8.40
2023-05-19T04:33:05.859Z,8.40
2023-05-19T04:35:33.085Z,8.50
2023-05-19T04:38:02.021Z,8.50
2023-05-19T04:40:32.404Z,8.60
2023-05-19T04:43:01.983Z,8.60
2023-05-19T04:45:30.150Z,8.70
2023-05-19T04:48:00.526Z,8.70
2023-05-19T04:50:32.375Z,8.80
2023-05-19T04:53:00.553Z,8.90
2023-05-19T04:55:28.026Z,9.00
2023-05-19T04:57:54.942Z,9.10
2023-05-19T05:00:25.403Z,9.00
2023-05-19T05:02:59.544Z,9.00
2023-05-19T05:05:29.588Z,9.00
2023-05-19T05:07:57.439Z,9.10
2023-05-19T05:10:27.203Z,9.10
2023-05-19T05:12:55.053Z,9.20
2023-05-19T05:15:22.824Z,9.20
2023-05-19T05:17:50.935Z,9.20
2023-05-19T05:20:19.724Z,9.20
2023-05-19T05:22:47.088Z,9.30
2023-05-19T05:25:16.334Z,9.40
2023-05-19T05:27:43.755Z,9.60
2023-05-19T05:30:11.020Z,9.70
2023-05-19T05:32:38.832Z,9.80
2023-05-19T05:35:13.664Z,10.00
2023-05-19T05:37:40.553Z,10.30
2023-05-19T05:40:08.505Z,10.50
2023-05-19T05:42:36.077Z,10.80
2023-05-19T05:45:03.367Z,11.10
2023-05-19T05:47:30.875Z,11.20
2023-05-19T05:49:58.104Z,11.20
2023-05-19T05:52:30.395Z,11.30
2023-05-19T05:54:58.579Z,11.40
2023-05-19T05:57:25.701Z,11.50
2023-05-19T05:59:52.628Z,11.60
2023-05-19T06:02:19.723Z,11.60
2023-05-19T06:04:46.691Z,11.60
2023-05-19T06:07:14.127Z,11.60
2023-05-19T06:09:41.039Z,11.60
2023-05-19T06:12:09.446Z,11.70
2023-05-19T06:14:41.388Z,11.90
2023-05-19T06:17:29.543Z,11.70
2023-05-19T06:19:57.715Z,11.70
2023-05-19T06:22:25.947Z,11.60
2023-05-19T06:24:53.592Z,11.60
2023-05-19T06:27:20.798Z,11.60
2023-05-19T06:29:47.848Z,11.80
2023-05-19T06:32:15.151Z,12.00
2023-05-19T06:34:42.228Z,12.20
2023-05-19T06:37:09.628Z,12.30
2023-05-19T06:39:38.670Z,12.50
2023-05-19T06:42:05.705Z,12.70
2023-05-19T06:44:56.053Z,12.90
2023-05-19T06:47:23.087Z,13.10
2023-05-19T06:49:51.867Z,13.20
2023-05-19T06:52:18.851Z,13.00
2023-05-19T06:54:45.811Z,12.80
2023-05-19T06:57:17.069Z,12.60
2023-05-19T06:59:46.724Z,12.50
2023-05-19T07:02:14.788Z,12.60
2023-05-19T07:04:43.101Z,12.50
2023-05-19T07:07:12.667Z,12.50
2023-05-19T07:09:40.081Z,12.60
2023-05-19T07:12:07.875Z,13.10
2023-05-19T07:14:36.443Z,13.60
2023-05-19T07:17:03.678Z,14.00
2023-05-19T07:19:31.609Z,14.30
2023-05-19T07:21:59.457Z,14.60
2023-05-19T07:24:27.581Z,14.30
2023-05-19T07:26:54.744Z,13.80
2023-05-19T07:29:21.621Z,13.70
2023-05-19T07:31:48.570Z,13.40
2023-05-19T07:34:15.533Z,13.10
2023-05-19T07:36:42.425Z,13.00
2023-05-19T07:39:09.356Z,12.60
2023-05-19T07:41:36.599Z,12.40
2023-05-19T07:44:07.610Z,12.60
2023-05-19T07:46:35.550Z,12.60
2023-05-19T07:49:02.549Z,12.80
2023-05-19T07:51:29.797Z,12.70
2023-05-19T07:53:57.489Z,12.60
2023-05-19T07:56:24.907Z,12.50
2023-05-19T07:58:51.908Z,12.60
2023-05-19T08:01:18.809Z,12.60
2023-05-19T08:03:45.826Z,12.50
2023-05-19T08:06:12.794Z,12.60
2023-05-19T08:08:39.726Z,12.50
2023-05-19T08:11:06.706Z,12.20
2023-05-19T08:13:34.747Z,12.20
2023-05-19T08:16:01.661Z,12.40
2023-05-19T08:18:31.326Z,12.70
2023-05-19T08:20:58.755Z,13.10
2023-05-19T08:23:25.736Z,13.30
2023-05-19T08:25:53.128Z,13.70
2023-05-19T08:28:19.949Z,13.90
2023-05-19T08:30:46.900Z,13.60
2023-05-19T08:33:13.877Z,13.70
2023-05-19T08:35:40.937Z,13.60
2023-05-19T08:38:07.901Z,13.50
2023-05-19T08:40:37.664Z,13.40
2023-05-19T08:43:04.610Z,13.40
2023-05-19T08:45:34.640Z,13.40
2023-05-19T08:48:02.714Z,13.30
2023-05-19T08:50:39.298Z,13.40
2023-05-19T08:53:33.116Z,13.50
2023-05-19T08:56:17.933Z,13.30
2023-05-19T08:58:46.145Z,13.30
2023-05-19T09:01:16.867Z,13.40
2023-05-19T09:03:45.864Z,13.70
2023-05-19T09:06:13.311Z,13.70
2023-05-19T09:08:42.273Z,13.90
2023-05-19T09:11:10.128Z,14.30
2023-05-19T09:13:37.276Z,15.20
2023-05-19T09:16:04.613Z,15.80
2023-05-19T09:18:31.944Z,16.20
2023-05-19T09:21:00.584Z,16.00
2023-05-19T09:23:29.663Z,15.60
2023-05-19T09:25:57.280Z,15.50
2023-05-19T09:28:28.374Z,15.90
2023-05-19T09:31:08.477Z,15.60
2023-05-19T09:33:38.969Z,15.40
2023-05-19T09:36:08.297Z,15.10
2023-05-19T09:38:36.718Z,15.20
2023-05-19T09:41:04.898Z,15.00
2023-05-19T09:43:33.792Z,15.10
2023-05-19T09:46:08.581Z,15.10
2023-05-19T09:48:36.830Z,15.00
2023-05-19T09:51:06.455Z,14.80
2023-05-19T09:53:35.025Z,14.50
2023-05-19T09:56:04.189Z,14.30
2023-05-19T09:58:37.649Z,14.10
2023-05-19T10:01:05.760Z,13.80
2023-05-19T10:03:34.309Z,13.60
2023-05-19T10:06:01.932Z,13.70
2023-05-19T10:08:30.819Z,14.00
2023-05-19T10:10:58.516Z,14.20
2023-05-19T10:13:27.007Z,14.10
2023-05-19T10:15:59.003Z,13.80
2023-05-19T10:18:28.028Z,13.60
2023-05-19T10:20:55.976Z,13.50
2023-05-19T10:23:24.036Z,13.30
2023-05-19T10:25:56.330Z,13.60
2023-05-19T10:28:28.076Z,13.50
2023-05-19T10:30:59.362Z,13.70
2023-05-19T10:33:52.693Z,13.80
2023-05-19T10:36:47.821Z,13.60
2023-05-19T10:39:20.905Z,13.70
2023-05-19T10:42:13.769Z,13.70
2023-05-19T10:45:13.351Z,14.00
2023-05-19T10:47:43.838Z,14.60
2023-05-19T10:50:11.400Z,14.90
2023-05-19T10:52:39.894Z,15.00
2023-05-19T10:55:17.555Z,15.00
2023-05-19T10:58:00.469Z,14.70
2023-05-19T11:00:29.767Z,14.60
2023-05-19T11:03:16.710Z,14.60
2023-05-19T11:05:48.488Z,14.60
2023-05-19T11:08:17.446Z,14.90
2023-05-19T11:10:46.189Z,15.00
2023-05-19T11:13:23.830Z,15.20
2023-05-19T11:15:50.750Z,15.10
2023-05-19T11:18:19.050Z,15.30
2023-05-19T11:20:58.277Z,15.40
2023-05-19T11:23:26.623Z,15.60
2023-05-19T11:25:56.286Z,15.20
2023-05-19T11:28:28.138Z,15.30
2023-05-19T11:30:57.712Z,15.20
2023-05-19T11:33:29.145Z,15.00
2023-05-19T11:35:59.925Z,14.70
2023-05-19T11:38:28.556Z,14.60
2023-05-19T11:40:56.461Z,14.70
2023-05-19T11:43:24.838Z,14.60
2023-05-19T11:45:52.043Z,14.40
2023-05-19T11:48:21.622Z,14.90
2023-05-19T11:50:48.865Z,15.30
2023-05-19T11:53:22.077Z,15.20
2023-05-19T11:55:49.624Z,15.00
2023-05-19T11:58:17.311Z,14.80
2023-05-19T12:00:48.666Z,14.40
2023-05-19T12:03:17.385Z,13.90
2023-05-19T12:05:48.593Z,14.00
2023-05-19T12:08:19.707Z,14.20
2023-05-19T12:10:52.361Z,14.30
2023-05-19T12:13:20.130Z,14.50
2023-05-19T12:15:50.874Z,14.60
2023-05-19T12:18:17.850Z,14.50
2023-05-19T12:20:44.912Z,14.50
2023-05-19T12:23:12.525Z,14.40
2023-05-19T12:25:39.500Z,14.70
2023-05-19T12:28:07.265Z,14.60
2023-05-19T12:30:35.097Z,14.70
2023-05-19T12:33:03.136Z,14.60
2023-05-19T12:35:34.299Z,14.50
2023-05-19T12:38:05.535Z,14.40
2023-05-19T12:40:34.955Z,14.50
2023-05-19T12:43:02.311Z,14.50
2023-05-19T12:45:33.872Z,14.50
2023-05-19T12:48:05.387Z,14.50
2023-05-19T12:50:34.157Z,14.40
2023-05-19T12:53:02.049Z,14.30
2023-05-19T12:55:30.416Z,13.90
2023-05-19T12:57:58.590Z,14.00
2023-05-19T13:00:28.680Z,14.00
2023-05-19T13:03:02.136Z,14.00
2023-05-19T13:05:30.966Z,13.90
2023-05-19T13:07:58.848Z,13.70
2023-05-19T13:10:29.558Z,13.50
2023-05-19T13:12:57.164Z,13.60
2023-05-19T13:15:26.308Z,13.40
2023-05-19T13:17:54.736Z,13.30
2023-05-19T13:20:22.184Z,13.20
2023-05-19T13:22:49.794Z,13.20
2023-05-19T13:25:17.069Z,13.20
2023-05-19T13:27:48.163Z,13.20
2023-05-19T13:30:16.224Z,13.20
2023-05-19T13:32:43.116Z,13.10
2023-05-19T13:35:11.741Z,13.10
2023-05-19T13:37:39.592Z,13.20
2023-05-19T13:40:07.468Z,13.30
2023-05-19T13:42:35.221Z,13.20
2023-05-19T13:45:02.499Z,13.20
2023-05-19T13:47:29.681Z,13.10
2023-05-19T13:49:57.048Z,12.80
2023-05-19T13:52:25.323Z,12.70
2023-05-19T13:54:54.816Z,12.80
2023-05-19T13:57:22.668Z,12.80
2023-05-19T14:00:02.044Z,12.80
2023-05-19T14:02:39.838Z,12.90
2023-05-19T14:05:07.491Z,12.90
2023-05-19T14:07:35.112Z,13.00
2023-05-19T14:10:03.931Z,13.10
2023-05-19T14:12:41.328Z,13.20
2023-05-19T14:15:14.577Z,13.30
2023-05-19T14:17:42.048Z,13.20
2023-05-19T14:20:09.704Z,13.20
2023-05-19T14:22:36.685Z,13.40
2023-05-19T14:25:03.845Z,13.40
2023-05-19T14:27:30.796Z,13.60
2023-05-19T14:29:57.806Z,13.40
2023-05-19T14:32:24.750Z,13.50
2023-05-19T14:34:52.928Z,13.50
2023-05-19T14:37:20.404Z,13.60
2023-05-19T14:39:47.272Z,13.60
2023-05-19T14:42:14.286Z,13.60
2023-05-19T14:44:41.100Z,13.40
2023-05-19T14:47:08.442Z,13.30
2023-05-19T14:49:35.447Z,13.30
2023-05-19T14:52:02.423Z,13.20
2023-05-19T14:54:29.365Z,13.20
2023-05-19T14:56:56.279Z,13.20
2023-05-19T14:59:23.224Z,13.30
2023-05-19T15:01:50.282Z,13.20
2023-05-19T15:04:17.445Z,13.30
2023-05-19T15:06:46.351Z,13.50
2023-05-19T15:09:15.062Z,13.40
2023-05-19T15:11:42.076Z,13.30
2023-05-19T15:14:09.010Z,13.30
2023-05-19T15:16:35.896Z,13.10
2023-05-19T15:19:02.851Z,13.00
2023-05-19T15:21:29.741Z,13.00
2023-05-19T15:23:56.602Z,12.90
2023-05-19T15:26:23.501Z,12.90
2023-05-19T15:28:52.230Z,12.90
2023-05-19T15:31:19.222Z,12.70
2023-05-19T15:33:46.130Z,12.90
2023-05-19T15:36:16.406Z,12.90
2023-05-19T15:38:43.366Z,12.90
2023-05-19T15:41:11.104Z,12.80
2023-05-19T15:43:38.688Z,12.80
2023-05-19T15:46:05.645Z,12.80
2023-05-19T15:48:33.178Z,12.80
2023-05-19T15:51:00.896Z,12.70
2023-05-19T15:53:28.087Z,12.70
2023-05-19T15:55:55.127Z,12.60
2023-05-19T15:58:22.043Z,12.50
2023-05-19T16:00:49.035Z,12.50
2023-05-19T16:03:15.980Z,12.60
2023-05-19T16:05:45.951Z,12.50
2023-05-19T16:08:12.953Z,12.40
2023-05-19T16:10:39.832Z,12.30
2023-05-19T16:13:06.702Z,12.30
2023-05-19T16:15:34.042Z,12.30
2023-05-19T16:18:00.988Z,12.30
2023-05-19T16:20:29.745Z,12.30
2023-05-19T16:22:56.725Z,12.20
2023-05-19T16:25:24.330Z,12.20
2023-05-19T16:27:52.459Z,12.20
2023-05-19T16:30:19.345Z,12.10
2023-05-19T16:32:46.412Z,12.10
2023-05-19T16:35:13.360Z,12.00
2023-05-19T16:37:49.334Z,11.90
2023-05-19T16:40:16.205Z,12.00
2023-05-19T16:42:43.288Z,11.90
2023-05-19T16:45:10.483Z,11.90
2023-05-19T16:47:37.665Z,11.80
2023-05-19T16:50:05.122Z,11.80
2023-05-19T16:52:32.338Z,11.80
2023-05-19T16:54:59.135Z,11.80
2023-05-19T16:57:26.110Z,11.70
2023-05-19T16:59:53.058Z,11.70
2023-05-19T17:02:19.914Z,11.70
2023-05-19T17:04:46.928Z,11.70
2023-05-19T17:07:15.807Z,11.70
2023-05-19T17:09:43.559Z,11.70
2023-05-19T17:12:10.920Z,11.60
2023-05-19T17:14:37.862Z,11.60
2023-05-19T17:17:05.078Z,11.50
2023-05-19T17:19:32.524Z,11.50
2023-05-19T17:21:59.643Z,11.50
2023-05-19T17:24:28.825Z,11.50
2023-05-19T17:26:55.872Z,11.50
2023-05-19T17:29:22.943Z,11.60
2023-05-19T17:31:49.850Z,11.50
2023-05-19T17:34:16.729Z,11.50
2023-05-19T17:36:43.549Z,11.40
2023-05-19T17:39:10.688Z,11.40
2023-05-19T17:41:37.597Z,11.40
2023-05-19T17:44:06.709Z,11.40
2023-05-19T17:46:38.834Z,11.40
2023-05-19T17:49:06.475Z,11.40
2023-05-19T17:51:33.641Z,11.40
2023-05-19T17:54:01.033Z,11.30
2023-05-19T17:56:33.833Z,11.30
2023-05-19T17:59:01.188Z,11.30
2023-05-19T18:01:28.338Z,11.30
2023-05-19T18:03:55.645Z,11.30
2023-05-19T18:06:25.354Z,11.30
2023-05-19T18:08:55.057Z,11.20
2023-05-19T18:11:22.713Z,11.20
2023-05-19T18:13:49.747Z,11.20
2023-05-19T18:16:16.753Z,11.20
2023-05-19T18:18:46.982Z,11.20
2023-05-19T18:21:17.764Z,11.20
2023-05-19T18:23:45.974Z,11.20
2023-05-19T18:26:13.440Z,11.20
2023-05-19T18:28:41.286Z,11.30
2023-05-19T18:31:17.450Z,11.20
2023-05-19T18:33:45.105Z,11.20
2023-05-19T18:36:12.349Z,11.20
2023-05-19T18:38:39.503Z,11.20
2023-05-19T18:41:07.543Z,11.20
2023-05-19T18:43:34.464Z,11.10
2023-05-19T18:46:04.231Z,11.10
2023-05-19T18:48:32.078Z,11.00
2023-05-19T18:50:59.424Z,11.00
2023-05-19T18:53:26.368Z,11.00
2023-05-19T18:55:53.301Z,11.00
2023-05-19T18:58:20.278Z,11.00
2023-05-19T19:00:47.557Z,10.90
2023-05-19T19:03:14.463Z,10.80
2023-05-19T19:05:41.464Z,10.80
2023-05-19T19:08:08.391Z,10.70
2023-05-19T19:10:39.114Z,10.60
2023-05-19T19:13:06.569Z,10.60
2023-05-19T19:15:33.622Z,10.50
2023-05-19T19:18:00.594Z,10.50
2023-05-19T19:20:27.571Z,10.50
2023-05-19T19:22:54.454Z,10.50
2023-05-19T19:25:23.264Z,10.50
2023-05-19T19:27:50.647Z,10.40
2023-05-19T19:30:17.624Z,10.40
2023-05-19T19:32:44.584Z,10.40
2023-05-19T19:35:11.606Z,10.40
2023-05-19T19:37:38.436Z,10.40
2023-05-19T19:40:06.380Z,10.40
2023-05-19T19:42:33.730Z,10.40
2023-05-19T19:45:00.790Z,10.50
2023-05-19T19:47:27.708Z,10.50
2023-05-19T19:49:54.694Z,10.50
2023-05-19T19:52:21.531Z,10.50
2023-05-19T19:54:48.376Z,10.50
2023-05-19T19:57:17.240Z,10.50
2023-05-19T19:59:44.387Z,10.50
2023-05-19T20:02:11.863Z,10.40
2023-05-19T20:04:38.878Z,10.40
2023-05-19T20:07:06.282Z,10.40
2023-05-19T20:09:33.125Z,10.40
2023-05-19T20:12:00.037Z,10.50
2023-05-19T20:14:27.197Z,10.40
2023-05-19T20:16:54.174Z,10.40
2023-05-19T20:19:21.213Z,10.40
2023-05-19T20:21:48.162Z,10.40
2023-05-19T20:24:15.060Z,10.30
2023-05-19T20:26:41.976Z,10.20
2023-05-19T20:29:08.831Z,10.20
2023-05-19T20:31:35.723Z,10.20
2023-05-19T20:34:02.666Z,10.30
2023-05-19T20:36:29.770Z,10.30
2023-05-19T20:38:56.756Z,10.20
2023-05-19T20:41:23.665Z,10.20
2023-05-19T20:43:50.934Z,10.20
2023-05-19T20:46:17.862Z,10.30
2023-05-19T20:48:44.974Z,10.30
2023-05-19T20:51:11.876Z,10.30
2023-05-19T20:53:38.966Z,10.30
2023-05-19T20:56:07.289Z,10.30
2023-05-19T20:58:34.626Z,10.30
2023-05-19T21:01:01.519Z,10.40
2023-05-19T21:03:28.681Z,10.30
2023-05-19T21:05:55.745Z,10.40
2023-05-19T21:08:23.300Z,10.30
2023-05-19T21:10:50.993Z,10.30
2023-05-19T21:13:18.570Z,10.40
2023-05-19T21:15:45.565Z,10.40
2023-05-19T21:18:12.538Z,10.40
2023-05-19T21:20:39.692Z,10.30
2023-05-19T21:23:06.583Z,10.40
2023-05-19T21:25:33.525Z,10.40
2023-05-19T21:28:00.407Z,10.40
2023-05-19T21:30:27.268Z,10.30
2023-05-19T21:32:54.419Z,10.30
2023-05-19T21:35:21.414Z,10.30
2023-05-19T21:37:48.370Z,10.30
2023-05-19T21:40:15.240Z,10.30
2023-05-19T21:42:42.129Z,10.40
2023-05-19T21:45:09.671Z,10.40
2023-05-19T21:47:36.648Z,10.30
2023-05-19T21:50:03.570Z,10.20
2023-05-19T21:52:31.420Z,10.10
2023-05-19T21:54:58.374Z,10.20
2023-05-19T21:57:25.423Z,10.30
2023-05-19T21:59:52.305Z,10.30
2023-05-19T22:02:19.197Z,10.30
2023-05-19T22:04:46.382Z,10.30
2023-05-19T22:07:13.483Z,10.30
2023-05-19T22:09:40.360Z,10.20
2023-05-19T22:12:07.838Z,10.20
2023-05-19T22:14:35.431Z,10.10
2023-05-19T22:17:02.325Z,10.20
2023-05-19T22:19:29.201Z,10.20
2023-05-19T22:22:09.868Z,10.20
2023-05-19T22:24:40.616Z,10.20
2023-05-19T22:27:08.193Z,10.20
2023-05-19T22:29:37.515Z,10.20
2023-05-19T22:32:06.839Z,10.20
2023-05-19T22:34:33.724Z,10.20
2023-05-19T22:37:00.810Z,10.20
2023-05-19T22:39:27.712Z,10.20
2023-05-19T22:41:54.554Z,10.20
2023-05-19T22:44:21.858Z,10.20
2023-05-19T22:46:48.764Z,10.10
2023-05-19T22:49:15.605Z,10.20
2023-05-19T22:51:42.481Z,10.20
2023-05-19T22:54:10.802Z,10.10
2023-05-19T22:56:37.909Z,10.00
2023-05-19T22:59:04.762Z,10.00
2023-05-19T23:01:31.763Z,10.00
2023-05-19T23:03:58.675Z,10.10
2023-05-19T23:06:25.718Z,10.00
2023-05-19T23:09:00.824Z,10.00
2023-05-19T23:11:27.774Z,10.00
2023-05-19T23:13:54.722Z,10.00
2023-05-19T23:16:21.722Z,10.00
2023-05-19T23:18:48.629Z,10.00
2023-05-19T23:21:15.523Z,10.00
2023-05-19T23:23:42.359Z,10.00
2023-05-19T23:26:09.330Z,10.00
2023-05-19T23:28:36.128Z,10.00
2023-05-19T23:31:03.181Z,9.90
2023-05-19T23:33:30.050Z,9.80
2023-05-19T23:35:56.921Z,9.80
2023-05-19T23:38:23.919Z,9.70
2023-05-19T23:40:51.147Z,9.80
2023-05-19T23:43:18.165Z,9.80
2023-05-19T23:45:45.214Z,9.80
2023-05-19T23:48:12.590Z,9.80
2023-05-19T23:50:39.800Z,9.80
2023-05-19T23:53:06.858Z,9.80
2023-05-19T23:55:34.162Z,9.70
2023-05-19T23:58:02.018Z,9.80
